sensor_id;sensor_type;location;lat;lon;timestamp;temperature;humidity
2825;DHT22;1420;51.324;12.344;2023-05-23T00:01:08;17.60;99.90
2825;DHT22;1420;51.324;12.344;2023-05-23T00:03:36;17.60;99.90
2825;DHT22;1420;51.324;12.344;2023-05-23T00:06:04;17.70;99.90
2825;DHT22;1420;51.324;12.344;2023-05-23T00:08:30;17.60;99.90
2825;DHT22;1420;51.324;12.344;2023-05-23T00:10:58;17.70;99.90
2825;DHT22;1420;51.324;12.344;2023-05-23T00:13:25;17.70;99.90
2825;DHT22;1420;51.324;12.344;2023-05-23T00:15:52;17.70;99.90
2825;DHT22;1420;51.324;12.344;2023-05-23T00:18:20;17.60;99.90
2825;DHT22;1420;51.324;12.344;2023-05-23T00:20:47;17.80;99.90
2825;DHT22;1420;51.324;12.344;2023-05-23T00:23:14;17.70;99.90
2825;DHT22;1420;51.324;12.344;2023-05-23T00:25:41;17.60;99.90
2825;DHT22;1420;51.324;12.344;2023-05-23T00:28:09;17.60;99.90
2825;DHT22;1420;51.324;12.344;2023-05-23T00:30:37;17.50;99.90
2825;DHT22;1420;51.324;12.344;2023-05-23T00:33:05;17.50;99.90
2825;DHT22;1420;51.324;12.344;2023-05-23T00:35:32;17.60;99.90
2825;DHT22;1420;51.324;12.344;2023-05-23T00:37:59;17.60;99.90
2825;DHT22;1420;51.324;12.344;2023-05-23T00:40:26;17.60;99.90
2825;DHT22;1420;51.324;12.344;2023-05-23T00:42:53;17.60;99.90
2825;DHT22;1420;51.324;12.344;2023-05-23T00:45:21;17.60;99.90
2825;DHT22;1420;51.324;12.344;2023-05-23T00:47:48;17.70;99.90
2825;DHT22;1420;51.324;12.344;2023-05-23T00:50:15;17.80;99.90
2825;DHT22;1420;51.324;12.344;2023-05-23T00:52:43;17.80;99.90
2825;DHT22;1420;51.324;12.344;2023-05-23T00:55:11;17.90;99.90
2825;DHT22;1420;51.324;12.344;2023-05-23T00:57:38;17.80;99.90
2825;DHT22;1420;51.324;12.344;2023-05-23T01:00:07;17.70;99.90
2825;DHT22;1420;51.324;12.344;2023-05-23T01:02:38;17.60;99.90
2825;DHT22;1420;51.324;12.344;2023-05-23T01:05:05;17.50;99.90
2825;DHT22;1420;51.324;12.344;2023-05-23T01:07:32;17.60;99.90
2825;DHT22;1420;51.324;12.344;2023-05-23T01:09:59;17.60;99.90
2825;DHT22;1420;51.324;12.344;2023-05-23T01:12:36;17.50;99.90
2825;DHT22;1420;51.324;12.344;2023-05-23T01:15:05;17.50;99.90
2825;DHT22;1420;51.324;12.344;2023-05-23T01:17:38;17.50;99.90
2825;DHT22;1420;51.324;12.344;2023-05-23T01:20:06;17.40;99.90
2825;DHT22;1420;51.324;12.344;2023-05-23T01:22:36;17.40;99.90
2825;DHT22;1420;51.324;12.344;2023-05-23T01:25:43;17.30;99.90
2825;DHT22;1420;51.324;12.344;2023-05-23T01:27:59;17.30;99.90
2825;DHT22;1420;51.324;12.344;2023-05-23T01:30:24;17.40;99.90
2825;DHT22;1420;51.324;12.344;2023-05-23T01:32:52;17.50;99.90
2825;DHT22;1420;51.324;12.344;2023-05-23T01:35:21;17.40;99.90
2825;DHT22;1420;51.324;12.344;2023-05-23T01:37:46;17.40;99.90
2825;DHT22;1420;51.324;12.344;2023-05-23T01:40:13;17.40;99.90
2825;DHT22;1420;51.324;12.344;2023-05-23T01:42:41;17.40;99.90
2825;DHT22;1420;51.324;12.344;2023-05-23T01:45:09;17.40;99.90
2825;DHT22;1420;51.324;12.344;2023-05-23T01:47:36;17.30;99.90
2825;DHT22;1420;51.324;12.344;2023-05-23T01:50:03;17.20;99.90
2825;DHT22;1420;51.324;12.344;2023-05-23T01:52:31;17.20;99.90
2825;DHT22;1420;51.324;12.344;2023-05-23T01:54:58;17.20;99.90
2825;DHT22;1420;51.324;12.344;2023-05-23T01:57:27;17.20;99.90
2825;DHT22;1420;51.324;12.344;2023-05-23T01:59:53;17.20;99.90
2825;DHT22;1420;51.324;12.344;2023-05-23T02:02:21;17.20;99.90
2825;DHT22;1420;51.324;12.344;2023-05-23T02:04:48;17.30;99.90
2825;DHT22;1420;51.324;12.344;2023-05-23T02:07:16;17.20;99.90
2825;DHT22;1420;51.324;12.344;2023-05-23T02:09:44;17.20;99.90
2825;DHT22;1420;51.324;12.344;2023-05-23T02:12:11;17.10;99.90
2825;DHT22;1420;51.324;12.344;2023-05-23T02:14:38;17.20;99.90
2825;DHT22;1420;51.324;12.344;2023-05-23T02:17:05;17.20;99.90
2825;DHT22;1420;51.324;12.344;2023-05-23T02:19:33;17.20;99.90
2825;DHT22;1420;51.324;12.344;2023-05-23T02:22:00;17.20;99.90
2825;DHT22;1420;51.324;12.344;2023-05-23T02:24:27;17.10;99.90
2825;DHT22;1420;51.324;12.344;2023-05-23T02:26:54;17.10;99.90
2825;DHT22;1420;51.324;12.344;2023-05-23T02:29:21;17.20;99.90
2825;DHT22;1420;51.324;12.344;2023-05-23T02:31:49;17.20;99.90
2825;DHT22;1420;51.324;12.344;2023-05-23T02:34:16;17.20;99.90
2825;DHT22;1420;51.324;12.344;2023-05-23T02:36:43;17.10;99.90
2825;DHT22;1420;51.324;12.344;2023-05-23T02:39:10;17.00;99.90
2825;DHT22;1420;51.324;12.344;2023-05-23T02:41:38;17.00;99.90
2825;DHT22;1420;51.324;12.344;2023-05-23T02:44:06;17.00;99.90
2825;DHT22;1420;51.324;12.344;2023-05-23T02:46:33;17.00;99.90
2825;DHT22;1420;51.324;12.344;2023-05-23T02:49:01;17.00;99.90
2825;DHT22;1420;51.324;12.344;2023-05-23T02:51:28;17.00;99.90
2825;DHT22;1420;51.324;12.344;2023-05-23T02:53:55;17.00;99.90
2825;DHT22;1420;51.324;12.344;2023-05-23T02:56:22;17.00;99.90
2825;DHT22;1420;51.324;12.344;2023-05-23T02:58:50;17.00;99.90
2825;DHT22;1420;51.324;12.344;2023-05-23T03:01:18;17.00;99.90
2825;DHT22;1420;51.324;12.344;2023-05-23T03:03:46;17.10;99.90
2825;DHT22;1420;51.324;12.344;2023-05-23T03:06:13;17.00;99.90
2825;DHT22;1420;51.324;12.344;2023-05-23T03:08:40;17.00;99.90
2825;DHT22;1420;51.324;12.344;2023-05-23T03:11:07;17.00;99.90
2825;DHT22;1420;51.324;12.344;2023-05-23T03:13:35;16.90;99.90
2825;DHT22;1420;51.324;12.344;2023-05-23T03:16:02;16.90;99.90
2825;DHT22;1420;51.324;12.344;2023-05-23T03:18:29;17.00;99.90
2825;DHT22;1420;51.324;12.344;2023-05-23T03:20:56;16.90;99.90
2825;DHT22;1420;51.324;12.344;2023-05-23T03:23:24;16.90;99.90
2825;DHT22;1420;51.324;12.344;2023-05-23T03:25:51;16.80;99.90
2825;DHT22;1420;51.324;12.344;2023-05-23T03:28:19;16.90;99.90
2825;DHT22;1420;51.324;12.344;2023-05-23T03:30:47;16.80;99.90
2825;DHT22;1420;51.324;12.344;2023-05-23T03:33:15;16.80;99.90
2825;DHT22;1420;51.324;12.344;2023-05-23T03:35:42;16.70;99.90
2825;DHT22;1420;51.324;12.344;2023-05-23T03:38:10;16.60;99.90
2825;DHT22;1420;51.324;12.344;2023-05-23T03:40:37;16.50;99.90
2825;DHT22;1420;51.324;12.344;2023-05-23T03:43:05;16.60;99.90
2825;DHT22;1420;51.324;12.344;2023-05-23T03:45:32;16.60;99.90
2825;DHT22;1420;51.324;12.344;2023-05-23T03:47:59;16.60;99.90
2825;DHT22;1420;51.324;12.344;2023-05-23T03:50:26;16.60;99.90
2825;DHT22;1420;51.324;12.344;2023-05-23T03:52:53;16.50;99.90
2825;DHT22;1420;51.324;12.344;2023-05-23T03:55:20;16.50;99.90
2825;DHT22;1420;51.324;12.344;2023-05-23T03:57:48;16.50;99.90
2825;DHT22;1420;51.324;12.344;2023-05-23T04:00:15;16.50;99.90
2825;DHT22;1420;51.324;12.344;2023-05-23T04:02:42;16.60;99.90
2825;DHT22;1420;51.324;12.344;2023-05-23T04:05:11;16.50;99.90
2825;DHT22;1420;51.324;12.344;2023-05-23T04:07:37;16.50;99.90
2825;DHT22;1420;51.324;12.344;2023-05-23T04:10:06;16.50;99.90
2825;DHT22;1420;51.324;12.344;2023-05-23T04:12:33;16.40;99.90
2825;DHT22;1420;51.324;12.344;2023-05-23T04:15:00;16.50;99.90
2825;DHT22;1420;51.324;12.344;2023-05-23T04:17:28;16.50;99.90
2825;DHT22;1420;51.324;12.344;2023-05-23T04:19:55;16.40;99.90
2825;DHT22;1420;51.324;12.344;2023-05-23T04:22:22;16.40;99.90
2825;DHT22;1420;51.324;12.344;2023-05-23T04:24:49;16.40;99.90
2825;DHT22;1420;51.324;12.344;2023-05-23T04:27:19;16.40;99.90
2825;DHT22;1420;51.324;12.344;2023-05-23T04:29:47;16.30;99.90
2825;DHT22;1420;51.324;12.344;2023-05-23T04:32:14;16.30;99.90
2825;DHT22;1420;51.324;12.344;2023-05-23T04:34:41;16.30;99.90
2825;DHT22;1420;51.324;12.344;2023-05-23T04:37:08;16.20;99.90
2825;DHT22;1420;51.324;12.344;2023-05-23T04:39:36;16.30;99.90
2825;DHT22;1420;51.324;12.344;2023-05-23T04:42:03;16.30;99.90
2825;DHT22;1420;51.324;12.344;2023-05-23T04:44:30;16.20;99.90
2825;DHT22;1420;51.324;12.344;2023-05-23T04:46:57;16.30;99.90
2825;DHT22;1420;51.324;12.344;2023-05-23T04:49:24;16.30;99.90
2825;DHT22;1420;51.324;12.344;2023-05-23T04:51:52;16.50;99.90
2825;DHT22;1420;51.324;12.344;2023-05-23T04:54:21;16.60;99.90
2825;DHT22;1420;51.324;12.344;2023-05-23T04:56:49;16.60;99.90
2825;DHT22;1420;51.324;12.344;2023-05-23T04:59:16;16.70;99.90
2825;DHT22;1420;51.324;12.344;2023-05-23T05:01:45;16.80;99.90
2825;DHT22;1420;51.324;12.344;2023-05-23T05:04:12;16.70;99.90
2825;DHT22;1420;51.324;12.344;2023-05-23T05:06:41;16.80;99.90
2825;DHT22;1420;51.324;12.344;2023-05-23T05:09:09;16.70;99.90
2825;DHT22;1420;51.324;12.344;2023-05-23T05:11:36;16.80;99.90
2825;DHT22;1420;51.324;12.344;2023-05-23T05:14:04;16.90;99.90
2825;DHT22;1420;51.324;12.344;2023-05-23T05:16:31;17.30;99.90
2825;DHT22;1420;51.324;12.344;2023-05-23T05:18:58;17.20;99.90
2825;DHT22;1420;51.324;12.344;2023-05-23T05:21:25;17.40;99.90
2825;DHT22;1420;51.324;12.344;2023-05-23T05:23:53;17.50;99.90
2825;DHT22;1420;51.324;12.344;2023-05-23T05:26:20;17.80;99.90
2825;DHT22;1420;51.324;12.344;2023-05-23T05:28:47;17.60;99.90
2825;DHT22;1420;51.324;12.344;2023-05-23T05:31:14;17.70;99.90
2825;DHT22;1420;51.324;12.344;2023-05-23T05:33:41;17.70;99.90
2825;DHT22;1420;51.324;12.344;2023-05-23T05:36:09;17.70;99.90
2825;DHT22;1420;51.324;12.344;2023-05-23T05:38:36;17.80;99.90
2825;DHT22;1420;51.324;12.344;2023-05-23T05:41:03;17.90;99.90
2825;DHT22;1420;51.324;12.344;2023-05-23T05:43:30;17.80;99.90
2825;DHT22;1420;51.324;12.344;2023-05-23T05:45:58;17.70;99.90
2825;DHT22;1420;51.324;12.344;2023-05-23T05:48:25;18.00;99.90
2825;DHT22;1420;51.324;12.344;2023-05-23T05:50:52;17.60;99.90
2825;DHT22;1420;51.324;12.344;2023-05-23T05:53:19;17.40;99.90
2825;DHT22;1420;51.324;12.344;2023-05-23T05:55:47;17.80;99.90
2825;DHT22;1420;51.324;12.344;2023-05-23T05:58:15;17.30;99.90
2825;DHT22;1420;51.324;12.344;2023-05-23T06:00:42;17.20;99.90
2825;DHT22;1420;51.324;12.344;2023-05-23T06:03:09;17.40;99.90
2825;DHT22;1420;51.324;12.344;2023-05-23T06:05:36;17.40;99.90
2825;DHT22;1420;51.324;12.344;2023-05-23T06:08:04;17.30;99.90
2825;DHT22;1420;51.324;12.344;2023-05-23T06:10:31;17.20;99.90
2825;DHT22;1420;51.324;12.344;2023-05-23T06:12:58;17.10;99.90
2825;DHT22;1420;51.324;12.344;2023-05-23T06:15:25;17.20;99.90
2825;DHT22;1420;51.324;12.344;2023-05-23T06:17:52;17.20;99.90
2825;DHT22;1420;51.324;12.344;2023-05-23T06:20:20;17.20;99.90
2825;DHT22;1420;51.324;12.344;2023-05-23T06:22:47;17.20;99.90
2825;DHT22;1420;51.324;12.344;2023-05-23T06:25:15;17.20;99.90
2825;DHT22;1420;51.324;12.344;2023-05-23T06:27:42;17.10;99.90
2825;DHT22;1420;51.324;12.344;2023-05-23T06:30:10;17.20;99.90
2825;DHT22;1420;51.324;12.344;2023-05-23T06:32:39;17.20;99.90
2825;DHT22;1420;51.324;12.344;2023-05-23T06:35:06;17.20;99.90
2825;DHT22;1420;51.324;12.344;2023-05-23T06:37:34;17.10;99.90
2825;DHT22;1420;51.324;12.344;2023-05-23T06:40:01;17.00;99.90
2825;DHT22;1420;51.324;12.344;2023-05-23T06:42:28;16.90;99.90
2825;DHT22;1420;51.324;12.344;2023-05-23T06:44:55;16.70;99.90
2825;DHT22;1420;51.324;12.344;2023-05-23T06:47:23;16.70;99.90
2825;DHT22;1420;51.324;12.344;2023-05-23T06:49:51;16.60;99.90
2825;DHT22;1420;51.324;12.344;2023-05-23T06:52:18;16.70;99.90
2825;DHT22;1420;51.324;12.344;2023-05-23T06:54:45;16.60;99.90
2825;DHT22;1420;51.324;12.344;2023-05-23T06:57:13;16.50;99.90
2825;DHT22;1420;51.324;12.344;2023-05-23T06:59:40;16.50;99.90
2825;DHT22;1420;51.324;12.344;2023-05-23T07:02:07;16.50;99.90
2825;DHT22;1420;51.324;12.344;2023-05-23T07:04:35;16.20;99.90
2825;DHT22;1420;51.324;12.344;2023-05-23T07:07:02;16.10;99.90
2825;DHT22;1420;51.324;12.344;2023-05-23T07:09:29;16.10;99.90
2825;DHT22;1420;51.324;12.344;2023-05-23T07:11:56;16.10;99.90
2825;DHT22;1420;51.324;12.344;2023-05-23T07:14:24;16.20;99.90
2825;DHT22;1420;51.324;12.344;2023-05-23T07:16:52;16.20;99.90
2825;DHT22;1420;51.324;12.344;2023-05-23T07:19:19;16.20;99.90
2825;DHT22;1420;51.324;12.344;2023-05-23T07:21:47;16.30;99.90
2825;DHT22;1420;51.324;12.344;2023-05-23T07:24:14;16.50;99.90
2825;DHT22;1420;51.324;12.344;2023-05-23T07:26:42;16.50;99.90
2825;DHT22;1420;51.324;12.344;2023-05-23T07:29:09;16.40;99.90
2825;DHT22;1420;51.324;12.344;2023-05-23T07:31:36;16.60;99.90
2825;DHT22;1420;51.324;12.344;2023-05-23T07:34:04;16.60;99.90
2825;DHT22;1420;51.324;12.344;2023-05-23T07:36:32;16.90;99.90
2825;DHT22;1420;51.324;12.344;2023-05-23T07:39:00;16.90;99.90
2825;DHT22;1420;51.324;12.344;2023-05-23T07:41:28;16.80;99.90
2825;DHT22;1420;51.324;12.344;2023-05-23T07:43:55;16.80;99.90
2825;DHT22;1420;51.324;12.344;2023-05-23T07:46:22;16.80;99.90
2825;DHT22;1420;51.324;12.344;2023-05-23T07:48:49;16.90;99.90
2825;DHT22;1420;51.324;12.344;2023-05-23T07:51:16;17.00;99.90
2825;DHT22;1420;51.324;12.344;2023-05-23T07:53:44;17.00;99.90
2825;DHT22;1420;51.324;12.344;2023-05-23T07:56:11;16.90;99.90
2825;DHT22;1420;51.324;12.344;2023-05-23T07:58:38;17.00;99.90
2825;DHT22;1420;51.324;12.344;2023-05-23T08:01:06;16.50;99.90
2825;DHT22;1420;51.324;12.344;2023-05-23T08:03:33;16.50;99.90
2825;DHT22;1420;51.324;12.344;2023-05-23T08:06:01;16.70;99.90
2825;DHT22;1420;51.324;12.344;2023-05-23T08:08:29;16.60;99.90
2825;DHT22;1420;51.324;12.344;2023-05-23T08:10:56;16.60;99.90
2825;DHT22;1420;51.324;12.344;2023-05-23T08:13:24;16.50;99.90
2825;DHT22;1420;51.324;12.344;2023-05-23T08:15:51;16.40;99.90
2825;DHT22;1420;51.324;12.344;2023-05-23T08:18:19;16.40;99.90
2825;DHT22;1420;51.324;12.344;2023-05-23T08:20:47;16.40;99.90
2825;DHT22;1420;51.324;12.344;2023-05-23T08:23:14;16.40;99.90
2825;DHT22;1420;51.324;12.344;2023-05-23T08:25:41;16.50;99.90
2825;DHT22;1420;51.324;12.344;2023-05-23T08:28:09;16.40;99.90
2825;DHT22;1420;51.324;12.344;2023-05-23T08:30:36;16.40;99.90
2825;DHT22;1420;51.324;12.344;2023-05-23T08:33:04;16.70;99.90
2825;DHT22;1420;51.324;12.344;2023-05-23T08:35:31;16.60;99.90
2825;DHT22;1420;51.324;12.344;2023-05-23T08:37:59;16.80;99.90
2825;DHT22;1420;51.324;12.344;2023-05-23T08:40:26;17.00;99.90
2825;DHT22;1420;51.324;12.344;2023-05-23T08:42:54;17.30;99.90
2825;DHT22;1420;51.324;12.344;2023-05-23T08:45:21;17.40;99.90
2825;DHT22;1420;51.324;12.344;2023-05-23T08:47:49;17.50;99.90
2825;DHT22;1420;51.324;12.344;2023-05-23T08:50:16;17.70;99.90
2825;DHT22;1420;51.324;12.344;2023-05-23T08:52:48;17.80;99.90
2825;DHT22;1420;51.324;12.344;2023-05-23T08:55:14;17.70;99.90
2825;DHT22;1420;51.324;12.344;2023-05-23T08:57:41;18.10;99.90
2825;DHT22;1420;51.324;12.344;2023-05-23T09:00:10;18.20;99.90
2825;DHT22;1420;51.324;12.344;2023-05-23T09:02:38;18.10;99.90
2825;DHT22;1420;51.324;12.344;2023-05-23T09:05:06;18.10;99.90
2825;DHT22;1420;51.324;12.344;2023-05-23T09:07:34;18.10;99.90
2825;DHT22;1420;51.324;12.344;2023-05-23T09:10:01;18.20;99.90
2825;DHT22;1420;51.324;12.344;2023-05-23T09:12:29;18.30;99.90
2825;DHT22;1420;51.324;12.344;2023-05-23T09:14:56;18.20;99.90
2825;DHT22;1420;51.324;12.344;2023-05-23T09:17:23;18.30;99.90
2825;DHT22;1420;51.324;12.344;2023-05-23T09:19:52;18.30;99.90
2825;DHT22;1420;51.324;12.344;2023-05-23T09:22:23;18.20;99.90
2825;DHT22;1420;51.324;12.344;2023-05-23T09:24:50;18.50;99.90
2825;DHT22;1420;51.324;12.344;2023-05-23T09:27:18;18.30;99.90
2825;DHT22;1420;51.324;12.344;2023-05-23T09:29:47;18.30;99.90
2825;DHT22;1420;51.324;12.344;2023-05-23T09:32:15;18.20;99.90
2825;DHT22;1420;51.324;12.344;2023-05-23T09:34:58;18.50;99.90
2825;DHT22;1420;51.324;12.344;2023-05-23T09:37:30;18.40;99.90
2825;DHT22;1420;51.324;12.344;2023-05-23T09:39:57;18.40;99.90
2825;DHT22;1420;51.324;12.344;2023-05-23T09:42:24;18.30;99.90
2825;DHT22;1420;51.324;12.344;2023-05-23T09:44:51;18.20;99.90
2825;DHT22;1420;51.324;12.344;2023-05-23T09:47:18;18.10;99.90
2825;DHT22;1420;51.324;12.344;2023-05-23T09:49:45;18.10;99.90
2825;DHT22;1420;51.324;12.344;2023-05-23T09:52:14;18.00;99.90
2825;DHT22;1420;51.324;12.344;2023-05-23T09:54:42;17.90;99.90
2825;DHT22;1420;51.324;12.344;2023-05-23T09:57:09;17.70;99.90
2825;DHT22;1420;51.324;12.344;2023-05-23T09:59:38;17.40;99.90
2825;DHT22;1420;51.324;12.344;2023-05-23T10:02:05;17.60;99.90
2825;DHT22;1420;51.324;12.344;2023-05-23T10:04:33;17.60;99.90
2825;DHT22;1420;51.324;12.344;2023-05-23T10:07:03;17.50;99.90
2825;DHT22;1420;51.324;12.344;2023-05-23T10:09:29;17.50;99.90
2825;DHT22;1420;51.324;12.344;2023-05-23T10:14:29;17.60;99.90
2825;DHT22;1420;51.324;12.344;2023-05-23T10:17:03;17.60;99.90
2825;DHT22;1420;51.324;12.344;2023-05-23T10:19:41;17.70;99.90
2825;DHT22;1420;51.324;12.344;2023-05-23T10:22:03;17.60;99.90
2825;DHT22;1420;51.324;12.344;2023-05-23T10:24:30;17.60;99.90
2825;DHT22;1420;51.324;12.344;2023-05-23T10:26:58;17.60;99.90
2825;DHT22;1420;51.324;12.344;2023-05-23T10:29:26;17.60;99.90
2825;DHT22;1420;51.324;12.344;2023-05-23T10:31:53;17.60;99.90
2825;DHT22;1420;51.324;12.344;2023-05-23T10:34:26;17.70;99.90
2825;DHT22;1420;51.324;12.344;2023-05-23T10:37:01;17.60;99.90
2825;DHT22;1420;51.324;12.344;2023-05-23T10:39:50;17.50;99.90
2825;DHT22;1420;51.324;12.344;2023-05-23T10:42:16;17.40;99.90
2825;DHT22;1420;51.324;12.344;2023-05-23T10:44:42;17.60;99.90
2825;DHT22;1420;51.324;12.344;2023-05-23T10:47:09;17.60;99.90
2825;DHT22;1420;51.324;12.344;2023-05-23T10:49:38;17.50;99.90
2825;DHT22;1420;51.324;12.344;2023-05-23T10:52:05;17.40;99.90
2825;DHT22;1420;51.324;12.344;2023-05-23T10:54:36;17.20;99.90
2825;DHT22;1420;51.324;12.344;2023-05-23T10:57:03;17.20;99.90
2825;DHT22;1420;51.324;12.344;2023-05-23T10:59:31;16.90;99.90
2825;DHT22;1420;51.324;12.344;2023-05-23T11:01:59;16.80;99.90
2825;DHT22;1420;51.324;12.344;2023-05-23T11:04:27;16.80;99.90
2825;DHT22;1420;51.324;12.344;2023-05-23T11:06:54;16.80;99.90
2825;DHT22;1420;51.324;12.344;2023-05-23T11:09:21;16.90;99.90
2825;DHT22;1420;51.324;12.344;2023-05-23T11:11:54;17.00;99.90
2825;DHT22;1420;51.324;12.344;2023-05-23T11:17:14;17.20;99.90
2825;DHT22;1420;51.324;12.344;2023-05-23T11:22:25;17.20;99.90
2825;DHT22;1420;51.324;12.344;2023-05-23T11:24:51;17.20;99.90
2825;DHT22;1420;51.324;12.344;2023-05-23T11:27:33;17.10;99.90
2825;DHT22;1420;51.324;12.344;2023-05-23T11:30:02;17.00;99.90
2825;DHT22;1420;51.324;12.344;2023-05-23T11:32:29;16.70;99.90
2825;DHT22;1420;51.324;12.344;2023-05-23T11:34:58;16.70;99.90
2825;DHT22;1420;51.324;12.344;2023-05-23T11:37:25;16.20;99.90
2825;DHT22;1420;51.324;12.344;2023-05-23T11:39:52;15.90;99.90
2825;DHT22;1420;51.324;12.344;2023-05-23T11:42:21;15.90;99.90
2825;DHT22;1420;51.324;12.344;2023-05-23T11:44:49;15.90;99.90
2825;DHT22;1420;51.324;12.344;2023-05-23T11:47:16;16.00;99.90
2825;DHT22;1420;51.324;12.344;2023-05-23T11:49:45;16.00;99.90
2825;DHT22;1420;51.324;12.344;2023-05-23T11:52:11;16.30;99.90
2825;DHT22;1420;51.324;12.344;2023-05-23T11:54:39;16.40;99.90
2825;DHT22;1420;51.324;12.344;2023-05-23T11:57:06;16.40;99.90
2825;DHT22;1420;51.324;12.344;2023-05-23T11:59:33;16.30;99.90
2825;DHT22;1420;51.324;12.344;2023-05-23T12:02:02;16.10;99.90
2825;DHT22;1420;51.324;12.344;2023-05-23T12:04:28;15.90;99.90
2825;DHT22;1420;51.324;12.344;2023-05-23T12:06:56;15.70;99.90
2825;DHT22;1420;51.324;12.344;2023-05-23T12:09:23;15.60;99.90
2825;DHT22;1420;51.324;12.344;2023-05-23T12:11:50;15.50;99.90
2825;DHT22;1420;51.324;12.344;2023-05-23T12:14:17;15.20;99.90
2825;DHT22;1420;51.324;12.344;2023-05-23T12:16:45;15.30;99.90
2825;DHT22;1420;51.324;12.344;2023-05-23T12:19:15;15.20;99.90
2825;DHT22;1420;51.324;12.344;2023-05-23T12:21:45;15.10;99.90
2825;DHT22;1420;51.324;12.344;2023-05-23T12:24:14;14.90;99.90
2825;DHT22;1420;51.324;12.344;2023-05-23T12:26:47;15.00;99.90
2825;DHT22;1420;51.324;12.344;2023-05-23T12:29:15;15.00;99.90
2825;DHT22;1420;51.324;12.344;2023-05-23T12:31:42;15.00;99.90
2825;DHT22;1420;51.324;12.344;2023-05-23T12:34:10;14.90;99.90
2825;DHT22;1420;51.324;12.344;2023-05-23T12:36:37;14.90;99.90
2825;DHT22;1420;51.324;12.344;2023-05-23T12:39:04;15.00;99.90
2825;DHT22;1420;51.324;12.344;2023-05-23T12:41:32;15.10;99.90
2825;DHT22;1420;51.324;12.344;2023-05-23T12:44:00;15.20;99.90
2825;DHT22;1420;51.324;12.344;2023-05-23T12:46:27;15.20;99.90
2825;DHT22;1420;51.324;12.344;2023-05-23T12:48:55;15.20;99.90
2825;DHT22;1420;51.324;12.344;2023-05-23T12:51:22;15.20;99.90
2825;DHT22;1420;51.324;12.344;2023-05-23T12:53:49;15.20;99.90
2825;DHT22;1420;51.324;12.344;2023-05-23T12:56:16;15.40;99.90
2825;DHT22;1420;51.324;12.344;2023-05-23T12:58:44;15.40;99.90
2825;DHT22;1420;51.324;12.344;2023-05-23T13:01:12;15.30;99.90
2825;DHT22;1420;51.324;12.344;2023-05-23T13:03:39;15.20;99.90
2825;DHT22;1420;51.324;12.344;2023-05-23T13:06:06;15.20;99.90
2825;DHT22;1420;51.324;12.344;2023-05-23T13:08:33;15.00;99.90
2825;DHT22;1420;51.324;12.344;2023-05-23T13:11:01;15.00;99.90
2825;DHT22;1420;51.324;12.344;2023-05-23T13:13:28;14.90;99.90
2825;DHT22;1420;51.324;12.344;2023-05-23T13:15:55;14.90;99.90
2825;DHT22;1420;51.324;12.344;2023-05-23T13:18:22;14.90;99.90
2825;DHT22;1420;51.324;12.344;2023-05-23T13:20:50;15.00;99.90
2825;DHT22;1420;51.324;12.344;2023-05-23T13:23:18;15.00;99.90
2825;DHT22;1420;51.324;12.344;2023-05-23T13:25:45;15.20;99.90
2825;DHT22;1420;51.324;12.344;2023-05-23T13:28:12;15.30;99.90
2825;DHT22;1420;51.324;12.344;2023-05-23T13:30:40;15.30;99.90
2825;DHT22;1420;51.324;12.344;2023-05-23T13:33:07;15.30;99.90
2825;DHT22;1420;51.324;12.344;2023-05-23T13:35:35;15.30;99.90
2825;DHT22;1420;51.324;12.344;2023-05-23T13:38:02;15.30;99.90
2825;DHT22;1420;51.324;12.344;2023-05-23T13:40:29;15.20;99.90
2825;DHT22;1420;51.324;12.344;2023-05-23T13:42:56;15.00;99.90
2825;DHT22;1420;51.324;12.344;2023-05-23T13:45:24;15.00;99.90
2825;DHT22;1420;51.324;12.344;2023-05-23T13:47:52;15.00;99.90
2825;DHT22;1420;51.324;12.344;2023-05-23T13:50:19;15.00;99.90
2825;DHT22;1420;51.324;12.344;2023-05-23T13:52:46;14.80;99.90
2825;DHT22;1420;51.324;12.344;2023-05-23T13:55:13;14.90;99.90
2825;DHT22;1420;51.324;12.344;2023-05-23T13:57:41;14.90;99.90
2825;DHT22;1420;51.324;12.344;2023-05-23T14:00:09;14.80;99.90
2825;DHT22;1420;51.324;12.344;2023-05-23T14:02:36;14.80;99.90
2825;DHT22;1420;51.324;12.344;2023-05-23T14:05:04;14.70;99.90
2825;DHT22;1420;51.324;12.344;2023-05-23T14:07:31;14.60;99.90
2825;DHT22;1420;51.324;12.344;2023-05-23T14:09:58;14.70;99.90
2825;DHT22;1420;51.324;12.344;2023-05-23T14:12:25;14.60;99.90
2825;DHT22;1420;51.324;12.344;2023-05-23T14:14:53;14.50;99.90
2825;DHT22;1420;51.324;12.344;2023-05-23T14:17:20;14.50;99.90
2825;DHT22;1420;51.324;12.344;2023-05-23T14:19:48;14.50;99.90
2825;DHT22;1420;51.324;12.344;2023-05-23T14:22:16;14.40;99.90
2825;DHT22;1420;51.324;12.344;2023-05-23T14:24:44;14.20;99.90
2825;DHT22;1420;51.324;12.344;2023-05-23T14:27:11;14.10;99.90
2825;DHT22;1420;51.324;12.344;2023-05-23T14:29:38;14.10;99.90
2825;DHT22;1420;51.324;12.344;2023-05-23T14:32:05;14.00;99.90
2825;DHT22;1420;51.324;12.344;2023-05-23T14:34:33;13.90;99.90
2825;DHT22;1420;51.324;12.344;2023-05-23T14:37:00;14.10;99.90
2825;DHT22;1420;51.324;12.344;2023-05-23T14:39:27;14.10;99.90
2825;DHT22;1420;51.324;12.344;2023-05-23T14:41:54;14.10;99.90
2825;DHT22;1420;51.324;12.344;2023-05-23T14:44:22;14.20;99.90
2825;DHT22;1420;51.324;12.344;2023-05-23T14:46:50;14.10;99.90
2825;DHT22;1420;51.324;12.344;2023-05-23T14:49:18;13.90;99.90
2825;DHT22;1420;51.324;12.344;2023-05-23T14:51:45;13.80;99.90
2825;DHT22;1420;51.324;12.344;2023-05-23T14:54:12;13.90;99.90
2825;DHT22;1420;51.324;12.344;2023-05-23T14:56:39;13.70;99.90
2825;DHT22;1420;51.324;12.344;2023-05-23T14:59:07;13.70;99.90
2825;DHT22;1420;51.324;12.344;2023-05-23T15:01:34;13.60;99.90
2825;DHT22;1420;51.324;12.344;2023-05-23T15:04:02;14.00;99.90
2825;DHT22;1420;51.324;12.344;2023-05-23T15:06:29;13.90;99.90
2825;DHT22;1420;51.324;12.344;2023-05-23T15:08:56;14.10;99.90
2825;DHT22;1420;51.324;12.344;2023-05-23T15:11:24;14.00;99.90
2825;DHT22;1420;51.324;12.344;2023-05-23T15:13:51;14.00;99.90
2825;DHT22;1420;51.324;12.344;2023-05-23T15:16:18;14.10;99.90
2825;DHT22;1420;51.324;12.344;2023-05-23T15:18:45;14.10;99.90
2825;DHT22;1420;51.324;12.344;2023-05-23T15:21:13;14.10;99.90
2825;DHT22;1420;51.324;12.344;2023-05-23T15:23:40;14.00;99.90
2825;DHT22;1420;51.324;12.344;2023-05-23T15:26:07;14.00;99.90
2825;DHT22;1420;51.324;12.344;2023-05-23T15:28:34;13.90;99.90
2825;DHT22;1420;51.324;12.344;2023-05-23T15:31:01;13.60;99.90
2825;DHT22;1420;51.324;12.344;2023-05-23T15:33:29;13.50;99.90
2825;DHT22;1420;51.324;12.344;2023-05-23T15:35:56;13.40;99.90
2825;DHT22;1420;51.324;12.344;2023-05-23T15:38:23;13.50;99.90
2825;DHT22;1420;51.324;12.344;2023-05-23T15:40:51;13.40;99.90
2825;DHT22;1420;51.324;12.344;2023-05-23T15:43:19;13.40;99.90
2825;DHT22;1420;51.324;12.344;2023-05-23T15:45:46;13.30;99.90
2825;DHT22;1420;51.324;12.344;2023-05-23T15:48:14;13.10;99.90
2825;DHT22;1420;51.324;12.344;2023-05-23T15:50:41;13.10;99.90
2825;DHT22;1420;51.324;12.344;2023-05-23T15:53:08;13.00;99.90
2825;DHT22;1420;51.324;12.344;2023-05-23T15:55:35;13.10;99.90